createdAt,value
2023-01-31T00:01:49.210Z,99164.06
2023-01-31T00:04:29.075Z,99164.00
2023-01-31T00:07:08.936Z,99165.56
2023-01-31T00:09:47.987Z,99169.13
2023-01-31T00:12:28.198Z,99174.88
2023-01-31T00:15:08.936Z,99185.88
2023-01-31T00:17:48.542Z,99188.41
2023-01-31T00:20:28.952Z,99211.19
2023-01-31T00:23:07.845Z,99208.72
2023-01-31T00:25:47.671Z,99204.47
2023-01-31T00:28:50.926Z,99223.88
2023-01-31T00:31:35.109Z,99215.47
2023-01-31T00:34:14.888Z,99225.53
2023-01-31T00:36:57.145Z,99224.72
2023-01-31T00:39:37.014Z,99235.63
2023-01-31T00:42:06.219Z,99209.28
2023-01-31T00:44:37.155Z,99243.25
2023-01-31T00:47:06.622Z,99237.44
2023-01-31T00:49:35.462Z,99266.81
2023-01-31T00:52:04.579Z,99261.69
2023-01-31T00:54:33.244Z,99259.94
2023-01-31T00:57:02.171Z,99263.25
2023-01-31T00:59:31.415Z,99270.81
2023-01-31T01:02:03.136Z,99267.44
2023-01-31T01:04:31.957Z,99269.09
2023-01-31T01:07:00.843Z,99268.13
2023-01-31T01:09:29.657Z,99283.22
2023-01-31T01:11:58.348Z,99274.84
2023-01-31T01:14:27.427Z,99267.31
2023-01-31T01:16:58.705Z,99271.56
2023-01-31T01:19:28.982Z,99271.50
2023-01-31T01:21:58.532Z,99273.25
2023-01-31T01:24:28.316Z,99286.69
2023-01-31T01:26:57.431Z,99279.13
2023-01-31T01:29:27.332Z,99283.41
2023-01-31T01:31:56.188Z,99281.75
2023-01-31T01:34:24.954Z,99286.81
2023-01-31T01:36:55.664Z,99295.34
2023-01-31T01:39:24.714Z,99299.47
2023-01-31T01:41:53.729Z,99291.84
2023-01-31T01:44:43.172Z,99295.16
2023-01-31T01:47:18.192Z,99302.63
2023-01-31T01:49:51.288Z,99300.19
2023-01-31T01:52:23.281Z,99301.03
2023-01-31T01:54:57.528Z,99305.19
2023-01-31T01:57:31.296Z,99301.75
2023-01-31T02:00:06.437Z,99311.03
2023-01-31T02:02:45.680Z,99311.81
2023-01-31T02:05:18.630Z,99299.19
2023-01-31T02:07:49.156Z,99312.69
2023-01-31T02:10:25.274Z,99320.22
2023-01-31T02:12:55.006Z,99320.16
2023-01-31T02:15:24.741Z,99306.66
2023-01-31T02:17:55.626Z,99321.81
2023-01-31T02:20:35.241Z,99325.09
2023-01-31T02:23:16.082Z,99318.28
2023-01-31T02:26:10.055Z,99319.78
2023-01-31T02:29:03.195Z,99321.50
2023-01-31T02:32:00.622Z,99319.69
2023-01-31T02:34:40.143Z,99329.75
2023-01-31T02:37:24.355Z,99339.72
2023-01-31T02:40:03.879Z,99335.44
2023-01-31T02:42:36.805Z,99332.97
2023-01-31T02:45:13.296Z,99332.84
2023-01-31T02:47:55.366Z,99327.81
2023-01-31T02:50:32.373Z,99318.50
2023-01-31T02:53:08.019Z,99329.47
2023-01-31T02:55:52.645Z,99335.41
2023-01-31T02:58:26.554Z,99353.06
2023-01-31T03:00:59.710Z,99353.09
2023-01-31T03:03:32.239Z,99351.47
2023-01-31T03:06:29.404Z,99360.75
2023-01-31T03:09:06.088Z,99333.59
2023-01-31T03:11:43.822Z,99365.13
2023-01-31T03:14:27.768Z,99358.44
2023-01-31T03:17:16.095Z,99361.81
2023-01-31T03:19:55.877Z,99382.00
2023-01-31T03:22:29.661Z,99388.69
2023-01-31T03:25:01.230Z,99362.22
2023-01-31T03:27:31.877Z,99388.63
2023-01-31T03:30:06.747Z,99395.25
2023-01-31T03:32:41.264Z,99396.91
2023-01-31T03:35:10.980Z,99400.19
2023-01-31T03:37:46.443Z,99400.16
2023-01-31T03:40:27.813Z,99396.69
2023-01-31T03:43:04.071Z,99394.97
2023-01-31T03:45:40.038Z,99396.59
2023-01-31T03:48:14.524Z,99396.53
2023-01-31T03:50:51.204Z,99392.22
2023-01-31T03:53:26.904Z,99411.38
2023-01-31T03:56:01.465Z,99409.50
2023-01-31T03:58:37.953Z,99395.13
2023-01-31T04:01:09.434Z,99407.56
2023-01-31T04:03:43.350Z,99400.59
2023-01-31T04:06:13.372Z,99393.84
2023-01-31T04:08:43.735Z,99382.03
2023-01-31T04:11:16.620Z,99388.88
2023-01-31T04:13:45.472Z,99387.25
2023-01-31T04:16:14.668Z,99390.75
2023-01-31T04:18:43.534Z,99391.56
2023-01-31T04:21:12.240Z,99404.97
2023-01-31T04:23:41.012Z,99404.91
2023-01-31T04:26:10.011Z,99410.81
2023-01-31T04:28:40.241Z,99415.75
2023-01-31T04:31:09.669Z,99412.44
2023-01-31T04:33:38.384Z,99427.53
2023-01-31T04:36:08.266Z,99427.56
2023-01-31T04:38:37.091Z,99432.69
2023-01-31T04:41:06.298Z,99436.09
2023-01-31T04:43:35.066Z,99437.78
2023-01-31T04:46:05.436Z,99411.38
2023-01-31T04:48:34.350Z,99445.47
2023-01-31T04:51:03.020Z,99448.88
2023-01-31T04:53:31.827Z,99453.06
2023-01-31T04:56:00.992Z,99449.00
2023-01-31T04:58:29.773Z,99455.72
2023-01-31T05:00:58.775Z,99452.41
2023-01-31T05:03:29.136Z,99447.50
2023-01-31T05:05:58.113Z,99455.88
2023-01-31T05:08:27.023Z,99450.84
2023-01-31T05:11:00.774Z,99448.34
2023-01-31T05:13:32.988Z,99444.06
2023-01-31T05:16:02.172Z,99454.19
2023-01-31T05:18:32.729Z,99466.13
2023-01-31T05:21:01.525Z,99459.44
2023-01-31T05:23:31.361Z,99468.66
2023-01-31T05:26:00.395Z,99465.16
2023-01-31T05:28:29.198Z,99481.34
2023-01-31T05:31:05.117Z,99489.72
2023-01-31T05:33:36.232Z,99502.38
2023-01-31T05:36:06.049Z,99507.53
2023-01-31T05:38:34.894Z,99505.81
2023-01-31T05:41:03.588Z,99517.59
2023-01-31T05:43:32.580Z,99520.09
2023-01-31T05:46:01.516Z,99525.16
2023-01-31T05:48:30.311Z,99524.16
2023-01-31T05:51:00.822Z,99529.13
2023-01-31T05:53:29.626Z,99537.50
2023-01-31T05:55:58.333Z,99539.88
2023-01-31T05:58:27.153Z,99541.44
2023-01-31T06:00:57.836Z,99540.47
2023-01-31T06:03:26.763Z,99543.97
2023-01-31T06:05:55.763Z,99547.22
2023-01-31T06:08:26.262Z,99542.19
2023-01-31T06:10:55.172Z,99536.03
2023-01-31T06:13:23.964Z,99549.59
2023-01-31T06:15:52.892Z,99560.53
2023-01-31T06:18:21.995Z,99558.81
2023-01-31T06:20:50.763Z,99552.88
2023-01-31T06:23:19.462Z,99555.50
2023-01-31T06:25:52.304Z,99558.91
2023-01-31T06:28:21.294Z,99562.22
2023-01-31T06:30:50.462Z,99564.66
2023-01-31T06:33:19.457Z,99566.38
2023-01-31T06:35:48.214Z,99567.16
2023-01-31T06:38:17.108Z,99572.16
2023-01-31T06:40:45.834Z,99573.72
2023-01-31T06:43:16.059Z,99589.94
2023-01-31T06:45:45.618Z,99590.06
2023-01-31T06:48:14.436Z,99594.34
2023-01-31T06:50:43.288Z,99606.19
2023-01-31T06:53:12.016Z,99605.50
2023-01-31T06:55:41.304Z,99597.22
2023-01-31T06:58:10.008Z,99608.38
2023-01-31T07:00:40.116Z,99614.28
2023-01-31T07:03:08.935Z,99610.06
2023-01-31T07:05:37.644Z,99621.88
2023-01-31T07:08:06.878Z,99611.91
2023-01-31T07:10:35.846Z,99617.34
2023-01-31T07:13:04.936Z,99609.34
2023-01-31T07:15:33.701Z,99621.38
2023-01-31T07:18:03.892Z,99620.56
2023-01-31T07:20:32.867Z,99625.72
2023-01-31T07:23:01.861Z,99615.72
2023-01-31T07:25:32.713Z,99635.13
2023-01-31T07:28:01.612Z,99636.75
2023-01-31T07:30:30.870Z,99638.41
2023-01-31T07:33:00.239Z,99630.78
2023-01-31T07:35:31.076Z,99641.03
2023-01-31T07:38:00.553Z,99641.97
2023-01-31T07:40:29.807Z,99649.53
2023-01-31T07:42:59.630Z,99661.34
2023-01-31T07:45:28.877Z,99655.56
2023-01-31T07:48:00.204Z,99665.63
2023-01-31T07:50:30.818Z,99670.69
2023-01-31T07:53:00.041Z,99675.72
2023-01-31T07:55:28.751Z,99680.75
2023-01-31T07:57:57.499Z,99683.25
2023-01-31T08:00:36.035Z,99679.00
2023-01-31T08:03:14.944Z,99683.22
2023-01-31T08:05:47.797Z,99694.97
2023-01-31T08:08:17.207Z,99697.63
2023-01-31T08:10:47.560Z,99699.31
2023-01-31T08:13:16.220Z,99685.81
2023-01-31T08:15:45.394Z,99698.41
2023-01-31T08:18:14.257Z,99699.97
2023-01-31T08:20:45.070Z,99696.88
2023-01-31T08:23:14.276Z,99703.44
2023-01-31T08:25:42.867Z,99702.28
2023-01-31T08:28:12.349Z,99688.56
2023-01-31T08:30:42.613Z,99693.28
2023-01-31T08:33:12.976Z,99686.91
2023-01-31T08:35:41.774Z,99694.88
2023-01-31T08:38:16.638Z,99696.13
2023-01-31T08:40:46.310Z,99704.00
2023-01-31T08:43:15.606Z,99715.19
2023-01-31T08:45:44.733Z,99712.81
2023-01-31T08:48:13.501Z,99706.25
2023-01-31T08:50:42.352Z,99712.47
2023-01-31T08:53:12.461Z,99719.25
2023-01-31T08:55:41.241Z,99723.88
2023-01-31T08:58:09.962Z,99722.88
2023-01-31T09:00:38.742Z,99728.97
2023-01-31T09:03:07.570Z,99733.47
2023-01-31T09:05:36.373Z,99735.41
2023-01-31T09:08:05.167Z,99737.25
2023-01-31T09:10:35.431Z,99741.69
2023-01-31T09:13:04.315Z,99732.56
2023-01-31T09:15:33.001Z,99716.28
2023-01-31T09:18:02.274Z,99740.28
2023-01-31T09:20:31.065Z,99750.56
2023-01-31T09:22:59.870Z,99752.47
2023-01-31T09:25:43.026Z,99737.56
2023-01-31T09:28:17.149Z,99760.69
2023-01-31T09:30:45.894Z,99767.53
2023-01-31T09:33:14.649Z,99766.78
2023-01-31T09:35:43.393Z,99777.56
2023-01-31T09:38:12.945Z,99783.38
2023-01-31T09:40:42.100Z,99785.91
2023-01-31T09:43:14.090Z,99797.84
2023-01-31T09:45:47.847Z,99790.47
2023-01-31T09:48:20.839Z,99787.19
2023-01-31T09:50:56.140Z,99790.59
2023-01-31T09:53:31.135Z,99790.47
2023-01-31T09:56:15.647Z,99789.69
2023-01-31T09:58:56.177Z,99785.84
2023-01-31T10:01:31.862Z,99794.50
2023-01-31T10:04:21.736Z,99788.75
2023-01-31T10:06:58.706Z,99806.66
2023-01-31T10:09:33.377Z,99788.91
2023-01-31T10:12:11.151Z,99795.91
2023-01-31T10:14:50.481Z,99800.22
2023-01-31T10:17:24.933Z,99794.41
2023-01-31T10:19:57.683Z,99790.25
2023-01-31T10:22:39.316Z,99787.94
2023-01-31T10:25:22.279Z,99794.06
2023-01-31T10:27:53.409Z,99798.34
2023-01-31T10:30:26.870Z,99794.00
2023-01-31T10:33:03.615Z,99770.94
2023-01-31T10:35:41.288Z,99801.91
2023-01-31T10:38:19.435Z,99799.94
2023-01-31T10:40:56.869Z,99787.84
2023-01-31T10:43:36.071Z,99801.97
2023-01-31T10:46:12.186Z,99804.25
2023-01-31T10:48:47.718Z,99801.47
2023-01-31T10:51:31.995Z,99802.94
2023-01-31T10:54:22.574Z,99797.50
2023-01-31T10:56:51.482Z,99810.00
2023-01-31T10:59:25.559Z,99797.06
2023-01-31T11:01:54.676Z,99803.59
2023-01-31T11:04:33.447Z,99796.56
2023-01-31T11:07:03.920Z,99806.38
2023-01-31T11:09:36.193Z,99815.34
2023-01-31T11:12:07.665Z,99809.09
2023-01-31T11:14:36.965Z,99811.53
2023-01-31T11:17:09.809Z,99811.25
2023-01-31T11:19:46.766Z,99808.59
2023-01-31T11:22:25.839Z,99799.38
2023-01-31T11:24:55.252Z,99808.78
2023-01-31T11:27:31.096Z,99806.38
2023-01-31T11:30:01.783Z,99800.50
2023-01-31T11:32:34.427Z,99789.00
2023-01-31T11:35:07.121Z,99786.28
2023-01-31T11:37:36.125Z,99790.38
2023-01-31T11:40:23.036Z,99770.28
2023-01-31T11:42:56.640Z,99774.09
2023-01-31T11:45:29.025Z,99772.69
2023-01-31T11:48:00.975Z,99761.13
2023-01-31T11:50:38.107Z,99767.31
2023-01-31T11:53:19.600Z,99763.66
2023-01-31T11:55:50.840Z,99769.34
2023-01-31T11:58:22.801Z,99774.88
2023-01-31T12:00:56.584Z,99780.53
2023-01-31T12:07:03.906Z,99782.06
2023-01-31T12:09:43.961Z,99776.13
2023-01-31T12:12:31.582Z,99775.19
2023-01-31T12:15:05.031Z,99771.41
2023-01-31T12:17:43.327Z,99776.69
2023-01-31T12:20:28.560Z,99774.25
2023-01-31T12:23:10.029Z,99771.69
2023-01-31T12:25:53.969Z,99769.94
2023-01-31T12:28:42.842Z,99778.22
2023-01-31T12:31:39.018Z,99778.88
2023-01-31T12:34:29.373Z,99765.34
2023-01-31T12:37:13.841Z,99761.94
2023-01-31T12:40:22.875Z,99770.47
2023-01-31T12:42:59.729Z,99761.13
2023-01-31T12:45:51.063Z,99762.06
2023-01-31T12:48:41.441Z,99754.47
2023-01-31T12:51:28.704Z,99758.59
2023-01-31T12:54:04.917Z,99763.38
2023-01-31T12:56:48.428Z,99770.59
2023-01-31T12:59:35.551Z,99764.44
2023-01-31T13:02:19.877Z,99779.34
2023-01-31T13:04:54.518Z,99771.53
2023-01-31T13:07:31.946Z,99774.69
2023-01-31T13:10:05.035Z,99767.63
2023-01-31T13:12:40.401Z,99769.19
2023-01-31T13:15:29.667Z,99772.56
2023-01-31T13:18:03.725Z,99769.97
2023-01-31T13:20:37.988Z,99778.41
2023-01-31T13:23:14.698Z,99774.16
2023-01-31T13:25:51.539Z,99771.56
2023-01-31T13:28:26.149Z,99774.72
2023-01-31T13:30:58.900Z,99768.75
2023-01-31T13:33:37.153Z,99770.47
2023-01-31T13:36:20.999Z,99762.69
2023-01-31T13:38:50.757Z,99762.53
2023-01-31T13:41:22.379Z,99764.00
2023-01-31T13:43:53.379Z,99760.38
2023-01-31T13:46:28.738Z,99769.47
2023-01-31T13:49:01.631Z,99768.47
2023-01-31T13:51:36.126Z,99760.09
2023-01-31T13:54:09.994Z,99737.72
2023-01-31T13:56:42.300Z,99767.59
2023-01-31T13:59:12.906Z,99768.47
2023-01-31T14:01:49.541Z,99764.13
2023-01-31T14:04:24.797Z,99755.53
2023-01-31T14:06:59.372Z,99759.84
2023-01-31T14:09:30.269Z,99760.56
2023-01-31T14:12:00.579Z,99739.03
2023-01-31T14:14:42.035Z,99762.03
2023-01-31T14:17:13.867Z,99752.56
2023-01-31T14:20:06.004Z,99749.38
2023-01-31T14:22:36.404Z,99750.19
2023-01-31T14:25:15.189Z,99756.13
2023-01-31T14:28:03.794Z,99748.53
2023-01-31T14:30:42.029Z,99752.63
2023-01-31T14:33:24.613Z,99752.72
2023-01-31T14:36:21.958Z,99746.03
2023-01-31T14:39:11.093Z,99739.19
2023-01-31T14:42:02.907Z,99731.34
2023-01-31T14:44:43.484Z,99749.13
2023-01-31T14:47:30.152Z,99745.72
2023-01-31T14:50:19.621Z,99739.69
2023-01-31T14:53:03.481Z,99733.84
2023-01-31T14:55:49.117Z,99724.59
2023-01-31T14:58:22.291Z,99722.00
2023-01-31T15:00:54.694Z,99718.59
2023-01-31T15:03:28.000Z,99715.19
2023-01-31T15:06:08.380Z,99705.00
2023-01-31T15:08:43.574Z,99687.75
2023-01-31T15:11:43.099Z,99715.88
2023-01-31T15:14:35.588Z,99717.69
2023-01-31T15:17:23.680Z,99706.63
2023-01-31T15:20:15.201Z,99707.47
2023-01-31T15:22:45.898Z,99705.84
2023-01-31T15:25:25.826Z,99713.41
2023-01-31T15:27:58.288Z,99711.78
2023-01-31T15:30:31.075Z,99722.69
2023-01-31T15:33:05.041Z,99722.69
2023-01-31T15:35:37.459Z,99679.31
2023-01-31T15:38:13.719Z,99697.88
2023-01-31T15:40:42.583Z,99715.75
2023-01-31T15:43:20.276Z,99721.66
2023-01-31T15:45:53.122Z,99722.44
2023-01-31T15:48:23.351Z,99711.38
2023-01-31T15:50:56.618Z,99720.00
2023-01-31T15:53:27.617Z,99713.91
2023-01-31T15:56:00.527Z,99721.47
2023-01-31T15:58:32.725Z,99723.22
2023-01-31T16:01:04.281Z,99726.66
2023-01-31T16:03:36.430Z,99723.19
2023-01-31T16:06:08.816Z,99724.75
2023-01-31T16:08:40.070Z,99721.38
2023-01-31T16:11:11.481Z,99719.63
2023-01-31T16:13:44.395Z,99715.53
2023-01-31T16:16:14.567Z,99715.50
2023-01-31T16:18:46.992Z,99712.94
2023-01-31T16:21:24.146Z,99696.97
2023-01-31T16:24:00.758Z,99706.25
2023-01-31T16:26:34.040Z,99707.97
2023-01-31T16:29:11.069Z,99718.06
2023-01-31T16:31:48.414Z,99708.06
2023-01-31T16:34:25.779Z,99716.44
2023-01-31T16:36:59.960Z,99709.50
2023-01-31T16:39:38.982Z,99715.34
2023-01-31T16:42:11.124Z,99717.94
2023-01-31T16:44:45.777Z,99720.47
2023-01-31T16:47:32.676Z,99711.28
2023-01-31T16:50:42.961Z,99707.88
2023-01-31T16:53:26.606Z,99725.56
2023-01-31T16:56:17.025Z,99718.06
2023-01-31T16:58:50.995Z,99728.97
2023-01-31T17:01:23.215Z,99722.25
2023-01-31T17:04:05.103Z,99712.25
2023-01-31T17:06:35.331Z,99716.44
2023-01-31T17:09:05.643Z,99727.38
2023-01-31T17:11:42.611Z,99718.16
2023-01-31T17:14:13.047Z,99717.28
2023-01-31T17:16:43.176Z,99712.25
2023-01-31T17:19:14.269Z,99714.78
2023-01-31T17:21:44.132Z,99720.72
2023-01-31T17:24:15.292Z,99721.59
2023-01-31T17:26:44.095Z,99716.59
2023-01-31T17:29:13.004Z,99721.66
2023-01-31T17:31:43.398Z,99709.03
2023-01-31T17:34:14.865Z,99713.25
2023-01-31T17:36:44.464Z,99709.81
2023-01-31T17:39:13.275Z,99710.56
2023-01-31T17:41:42.465Z,99706.25
2023-01-31T17:44:15.448Z,99706.22
2023-01-31T17:46:45.736Z,99707.88
2023-01-31T17:49:15.510Z,99714.75
2023-01-31T17:51:45.877Z,99711.38
2023-01-31T17:54:14.833Z,99713.19
2023-01-31T17:56:43.555Z,99716.66
2023-01-31T17:59:18.456Z,99716.66
2023-01-31T18:01:52.269Z,99715.84
2023-01-31T18:04:21.205Z,99716.66
2023-01-31T18:06:50.070Z,99723.44
2023-01-31T18:09:20.445Z,99729.25
2023-01-31T18:11:49.343Z,99724.97
2023-01-31T18:14:18.063Z,99728.16
2023-01-31T18:16:46.902Z,99729.81
2023-01-31T18:19:17.053Z,99721.25
2023-01-31T18:21:54.338Z,99717.84
2023-01-31T18:24:23.593Z,99719.38
2023-01-31T18:26:52.498Z,99725.97
2023-01-31T18:29:23.345Z,99716.63
2023-01-31T18:31:55.704Z,99708.97
2023-01-31T18:34:25.959Z,99715.56
2023-01-31T18:36:54.711Z,99713.84
2023-01-31T18:39:23.752Z,99715.47
2023-01-31T18:41:53.224Z,99707.78
2023-01-31T18:44:22.497Z,99704.38
2023-01-31T18:46:51.242Z,99699.16
2023-01-31T18:49:20.287Z,99698.31
2023-01-31T18:51:50.893Z,99689.88
2023-01-31T18:54:19.825Z,99686.41
2023-01-31T18:56:48.513Z,99693.97
2023-01-31T18:59:17.294Z,99688.03
2023-01-31T19:01:46.054Z,99684.63
2023-01-31T19:04:14.940Z,99680.44
2023-01-31T19:06:45.235Z,99682.84
2023-01-31T19:09:16.378Z,99672.66
2023-01-31T19:11:46.029Z,99681.94
2023-01-31T19:14:14.919Z,99674.19
2023-01-31T19:16:45.171Z,99674.09
2023-01-31T19:19:14.222Z,99664.66
2023-01-31T19:21:43.140Z,99670.53
2023-01-31T19:24:15.613Z,99649.91
2023-01-31T19:26:45.963Z,99663.41
2023-01-31T19:29:16.902Z,99659.91
2023-01-31T19:31:46.219Z,99654.81
2023-01-31T19:34:15.190Z,99656.50
2023-01-31T19:36:46.802Z,99655.56
2023-01-31T19:39:15.740Z,99672.38
2023-01-31T19:41:45.844Z,99668.13
2023-01-31T19:44:14.683Z,99666.31
2023-01-31T19:46:44.179Z,99662.81
2023-01-31T19:49:13.150Z,99661.13
2023-01-31T19:51:42.626Z,99659.31
2023-01-31T19:54:15.477Z,99666.09
2023-01-31T19:56:45.888Z,99666.06
2023-01-31T19:59:14.684Z,99645.00
2023-01-31T20:01:43.362Z,99654.16
2023-01-31T20:04:12.173Z,99649.91
2023-01-31T20:06:40.916Z,99638.09
2023-01-31T20:09:16.460Z,99643.06
2023-01-31T20:11:47.116Z,99637.16
2023-01-31T20:14:15.875Z,99638.88
2023-01-31T20:16:44.713Z,99637.09
2023-01-31T20:19:13.487Z,99633.66
2023-01-31T20:21:42.205Z,99631.97
2023-01-31T20:24:11.545Z,99637.00
2023-01-31T20:26:40.414Z,99633.59
2023-01-31T20:29:10.784Z,99631.84
2023-01-31T20:31:39.974Z,99631.75
2023-01-31T20:34:08.740Z,99633.59
2023-01-31T20:36:37.527Z,99631.84
2023-01-31T20:39:06.551Z,99618.38
2023-01-31T20:41:35.878Z,99616.63
2023-01-31T20:44:06.098Z,99621.69
2023-01-31T20:46:36.255Z,99624.13
2023-01-31T20:49:05.019Z,99621.63
2023-01-31T20:51:33.645Z,99624.13
2023-01-31T20:54:04.178Z,99630.06
2023-01-31T20:56:32.841Z,99638.53
2023-01-31T20:59:01.566Z,99628.44
2023-01-31T21:01:30.307Z,99631.97
2023-01-31T21:04:00.565Z,99637.09
2023-01-31T21:06:29.949Z,99639.66
2023-01-31T21:08:58.619Z,99639.75
2023-01-31T21:11:27.269Z,99631.31
2023-01-31T21:13:56.006Z,99624.63
2023-01-31T21:16:24.812Z,99617.09
2023-01-31T21:18:53.606Z,99612.78
2023-01-31T21:21:24.425Z,99617.00
2023-01-31T21:23:55.779Z,99615.34
2023-01-31T21:26:26.760Z,99615.41
2023-01-31T21:28:56.159Z,99617.84
2023-01-31T21:31:25.202Z,99623.75
2023-01-31T21:33:54.200Z,99611.13
2023-01-31T21:36:27.014Z,99623.00
2023-01-31T21:38:55.836Z,99629.78
2023-01-31T21:41:34.492Z,99612.25
2023-01-31T21:44:03.821Z,99620.69
2023-01-31T21:46:32.516Z,99631.78
2023-01-31T21:49:01.882Z,99627.53
2023-01-31T21:51:31.929Z,99635.97
2023-01-31T21:54:00.665Z,99634.34
2023-01-31T21:56:29.921Z,99642.84
2023-01-31T21:58:58.933Z,99623.47
2023-01-31T22:01:29.882Z,99625.09
2023-01-31T22:03:59.348Z,99622.47
2023-01-31T22:06:31.713Z,99625.09
2023-01-31T22:09:03.244Z,99620.00
2023-01-31T22:11:33.476Z,99619.16
2023-01-31T22:14:04.491Z,99626.75
2023-01-31T22:16:33.228Z,99614.25
2023-01-31T22:19:02.164Z,99612.66
2023-01-31T22:21:32.808Z,99615.19
2023-01-31T22:24:04.148Z,99607.72
2023-01-31T22:26:35.348Z,99604.38
2023-01-31T22:29:06.620Z,99595.09
2023-01-31T22:31:35.545Z,99600.06
2023-01-31T22:34:04.763Z,99606.00
2023-01-31T22:36:34.374Z,99601.22
2023-01-31T22:39:04.919Z,99587.41
2023-01-31T22:41:33.775Z,99596.25
2023-01-31T22:44:02.488Z,99603.09
2023-01-31T22:46:31.425Z,99599.91
2023-01-31T22:49:00.138Z,99599.19
2023-01-31T22:51:30.478Z,99585.91
2023-01-31T22:53:59.799Z,99588.53
2023-01-31T22:56:31.562Z,99582.72
2023-01-31T22:59:02.259Z,99559.13
2023-01-31T23:01:33.068Z,99566.78
2023-01-31T23:04:04.076Z,99565.06
2023-01-31T23:06:32.969Z,99571.94
2023-01-31T23:09:01.611Z,99573.63
2023-01-31T23:11:31.813Z,99576.19
2023-01-31T23:14:00.876Z,99575.47
2023-01-31T23:16:43.922Z,99575.38
2023-01-31T23:19:13.789Z,99561.00
2023-01-31T23:21:44.556Z,99562.78
2023-01-31T23:24:15.358Z,99568.75
2023-01-31T23:26:45.563Z,99549.34
2023-01-31T23:29:14.820Z,99541.78
2023-01-31T23:31:43.785Z,99533.44
2023-01-31T23:34:12.553Z,99528.38
2023-01-31T23:36:41.352Z,99519.97
2023-01-31T23:39:11.190Z,99522.56
2023-01-31T23:41:39.930Z,99543.72
2023-01-31T23:44:10.193Z,99525.22
2023-01-31T23:46:39.048Z,99521.81
2023-01-31T23:49:08.143Z,99519.34
2023-01-31T23:51:36.930Z,99521.91
2023-01-31T23:54:06.250Z,99512.69
2023-01-31T23:56:34.998Z,99533.84
2023-01-31T23:59:05.021Z,99542.19
